createdAt,value
2022-09-12T00:01:53.344Z,9.88
2022-09-12T00:04:53.321Z,9.89
2022-09-12T00:07:53.359Z,9.91
2022-09-12T00:10:53.344Z,9.77
2022-09-12T00:13:53.517Z,9.68
2022-09-12T00:16:53.413Z,9.59
2022-09-12T00:19:53.371Z,9.52
2022-09-12T00:22:53.376Z,9.47
2022-09-12T00:25:53.415Z,9.41
2022-09-12T00:28:53.407Z,9.48
2022-09-12T00:31:53.426Z,9.5
2022-09-12T00:34:53.412Z,9.52
2022-09-12T00:37:53.426Z,9.52
2022-09-12T00:40:53.570Z,9.52
2022-09-12T00:43:53.498Z,9.47
2022-09-12T00:46:53.465Z,9.47
2022-09-12T00:49:53.462Z,9.48
2022-09-12T00:52:53.470Z,9.47
2022-09-12T00:55:53.477Z,9.48
2022-09-12T00:58:53.494Z,9.43
2022-09-12T01:01:53.625Z,9.43
2022-09-12T01:04:53.502Z,9.43
2022-09-12T01:07:53.515Z,9.5
2022-09-12T01:10:53.519Z,9.51
2022-09-12T01:13:53.565Z,9.45
2022-09-12T01:16:53.543Z,9.45
2022-09-12T01:19:53.591Z,9.45
2022-09-12T01:22:53.561Z,9.4
2022-09-12T01:25:53.579Z,9.4
2022-09-12T01:28:53.594Z,9.33
2022-09-12T01:31:53.650Z,9.31
2022-09-12T01:34:53.607Z,9.26
2022-09-12T01:37:53.643Z,9.27
2022-09-12T01:40:53.619Z,9.26
2022-09-12T01:43:53.636Z,9.19
2022-09-12T01:46:53.638Z,9.13
2022-09-12T01:49:53.643Z,9.13
2022-09-12T01:52:53.762Z,9.15
2022-09-12T01:55:53.692Z,9.23
2022-09-12T01:58:53.683Z,9.24
2022-09-12T02:01:53.710Z,9.18
2022-09-12T02:04:53.696Z,9.18
2022-09-12T02:07:53.701Z,9.18
2022-09-12T02:10:53.719Z,9.17
2022-09-12T02:13:53.784Z,9.11
2022-09-12T02:16:53.736Z,9.17
2022-09-12T02:19:53.741Z,9.11
2022-09-12T02:22:53.740Z,9.1
2022-09-12T02:25:53.738Z,9.04
2022-09-12T02:28:53.748Z,8.98
2022-09-12T02:31:53.773Z,8.99
2022-09-12T02:34:53.749Z,8.93
2022-09-12T02:37:53.749Z,8.93
2022-09-12T02:40:53.753Z,8.94
2022-09-12T02:43:53.761Z,8.95
2022-09-12T02:46:53.754Z,8.95
2022-09-12T02:49:53.784Z,8.96
2022-09-12T02:52:53.759Z,8.97
2022-09-12T02:55:53.761Z,8.91
2022-09-12T02:58:53.795Z,8.9
2022-09-12T03:01:53.799Z,8.89
2022-09-12T03:04:53.768Z,8.9
2022-09-12T03:07:53.812Z,8.85
2022-09-12T03:10:53.771Z,8.85
2022-09-12T03:13:53.783Z,8.85
2022-09-12T03:16:53.771Z,8.86
2022-09-12T03:19:53.779Z,8.81
2022-09-12T03:22:53.780Z,8.73
2022-09-12T03:25:53.804Z,8.72
2022-09-12T03:28:53.790Z,8.68
2022-09-12T03:31:53.781Z,8.67
2022-09-12T03:34:53.785Z,8.6
2022-09-12T03:37:53.791Z,8.53
2022-09-12T03:40:54.942Z,8.47
2022-09-12T03:43:53.825Z,8.41
2022-09-12T03:46:53.790Z,8.41
2022-09-12T03:49:53.793Z,8.41
2022-09-12T03:52:53.791Z,8.43
2022-09-12T03:55:53.788Z,8.45
2022-09-12T03:58:53.799Z,8.4
2022-09-12T04:01:53.871Z,8.4
2022-09-12T04:04:53.794Z,8.34
2022-09-12T04:07:53.792Z,8.34
2022-09-12T04:10:53.797Z,8.4
2022-09-12T04:13:53.824Z,8.48
2022-09-12T04:16:53.843Z,8.49
2022-09-12T04:19:53.826Z,8.5
2022-09-12T04:22:53.812Z,8.45
2022-09-12T04:25:53.804Z,8.38
2022-09-12T04:28:53.814Z,8.31
2022-09-12T04:31:53.809Z,8.35
2022-09-12T04:34:53.811Z,8.37
2022-09-12T04:37:53.836Z,8.31
2022-09-12T04:40:53.809Z,8.25
2022-09-12T04:43:53.810Z,8.24
2022-09-12T04:46:53.818Z,8.25
2022-09-12T04:49:53.810Z,8.26
2022-09-12T04:52:53.814Z,8.27
2022-09-12T04:55:53.842Z,8.33
2022-09-12T04:58:53.821Z,8.34
2022-09-12T05:01:53.861Z,8.34
2022-09-12T05:04:53.824Z,8.35
2022-09-12T05:07:53.834Z,8.4
2022-09-12T05:10:53.835Z,8.41
2022-09-12T05:13:53.860Z,8.41
2022-09-12T05:16:53.895Z,8.42
2022-09-12T05:19:53.831Z,8.42
2022-09-12T05:22:53.838Z,8.47
2022-09-12T05:25:53.837Z,8.48
2022-09-12T05:28:53.840Z,8.54
2022-09-12T05:31:53.867Z,8.59
2022-09-12T05:34:53.848Z,8.65
2022-09-12T05:37:53.852Z,8.71
2022-09-12T05:40:53.841Z,8.88
2022-09-12T05:43:53.849Z,8.99
2022-09-12T05:46:53.846Z,9.17
2022-09-12T05:49:53.873Z,9.27
2022-09-12T05:52:53.850Z,9.38
2022-09-12T05:55:53.851Z,9.48
2022-09-12T05:58:53.853Z,9.59
2022-09-12T06:01:53.867Z,9.77
2022-09-12T06:04:53.864Z,10.04
2022-09-12T06:07:53.889Z,10.21
2022-09-12T06:10:53.865Z,10.34
2022-09-12T06:13:53.865Z,10.47
2022-09-12T06:16:53.912Z,10.65
2022-09-12T06:19:53.871Z,10.73
2022-09-12T06:22:53.872Z,10.86
2022-09-12T06:25:53.903Z,10.98
2022-09-12T06:28:53.875Z,11.06
2022-09-12T06:31:53.879Z,11.14
2022-09-12T06:34:53.886Z,11.32
2022-09-12T06:37:53.891Z,11.33
2022-09-12T06:40:53.896Z,11.4
2022-09-12T06:43:53.921Z,11.51
2022-09-12T06:46:53.895Z,11.51
2022-09-12T06:49:53.900Z,11.63
2022-09-12T06:52:53.891Z,11.62
2022-09-12T06:55:53.904Z,11.68
2022-09-12T06:58:53.904Z,11.73
2022-09-12T07:01:54.025Z,11.69
2022-09-12T07:04:53.905Z,11.74
2022-09-12T07:07:53.920Z,11.85
2022-09-12T07:10:53.928Z,11.86
2022-09-12T07:13:53.917Z,11.88
2022-09-12T07:16:54.013Z,11.87
2022-09-12T07:19:53.951Z,11.9
2022-09-12T07:22:53.942Z,11.96
2022-09-12T07:25:53.937Z,12.07
2022-09-12T07:28:53.948Z,12.08
2022-09-12T07:31:53.944Z,12.01
2022-09-12T07:34:53.947Z,12.06
2022-09-12T07:37:53.975Z,12.13
2022-09-12T07:40:53.956Z,12.32
2022-09-12T07:43:53.955Z,12.46
2022-09-12T07:46:53.950Z,12.41
2022-09-12T07:49:53.970Z,12.44
2022-09-12T07:52:53.964Z,12.49
2022-09-12T07:55:54.011Z,12.51
2022-09-12T07:58:53.974Z,12.55
2022-09-12T08:01:53.974Z,12.52
2022-09-12T08:04:53.984Z,12.58
2022-09-12T08:07:57.618Z,12.79
2022-09-12T08:10:53.981Z,12.69
2022-09-12T08:13:55.537Z,12.71
2022-09-12T08:16:53.977Z,12.67
2022-09-12T08:19:53.983Z,12.71
2022-09-12T08:22:53.973Z,12.8
2022-09-12T08:25:53.977Z,12.83
2022-09-12T08:28:53.987Z,12.79
2022-09-12T08:31:57.241Z,12.67
2022-09-12T08:34:53.992Z,12.69
2022-09-12T08:37:53.985Z,12.85
2022-09-12T08:40:54.001Z,12.86
2022-09-12T08:43:56.045Z,12.8
2022-09-12T08:46:54.011Z,12.85
2022-09-12T08:49:54.043Z,12.76
2022-09-12T08:52:54.015Z,12.67
2022-09-12T08:55:54.018Z,12.69
2022-09-12T08:58:54.019Z,12.81
2022-09-12T09:01:54.050Z,12.65
2022-09-12T09:04:54.021Z,12.79
2022-09-12T09:07:54.058Z,12.77
2022-09-12T09:10:54.037Z,12.6
2022-09-12T09:13:54.039Z,12.5
2022-09-12T09:16:54.038Z,12.33
2022-09-12T09:19:54.071Z,12.48
2022-09-12T09:22:54.049Z,12.64
2022-09-12T09:25:54.074Z,12.71
2022-09-12T09:28:54.055Z,12.27
2022-09-12T09:31:54.052Z,12.27
2022-09-12T09:34:54.061Z,12.5
2022-09-12T09:37:58.074Z,12.35
2022-09-12T09:40:54.077Z,12.23
2022-09-12T09:43:54.155Z,12.34
2022-09-12T09:46:54.081Z,12.12
2022-09-12T09:49:54.084Z,12.01
2022-09-12T09:52:54.093Z,11.87
2022-09-12T09:55:54.098Z,11.83
2022-09-12T09:58:54.102Z,11.67
2022-09-12T10:01:54.133Z,11.64
2022-09-12T10:04:54.106Z,11.67
2022-09-12T10:07:54.127Z,11.76
2022-09-12T10:10:54.130Z,11.76
2022-09-12T10:13:54.126Z,11.86
2022-09-12T10:16:54.147Z,11.82
2022-09-12T10:20:10.844Z,11.84
2022-09-12T10:22:54.148Z,11.73
2022-09-12T10:25:54.164Z,11.68
2022-09-12T10:28:54.161Z,11.6
2022-09-12T10:31:54.164Z,11.59
2022-09-12T10:34:54.167Z,11.81
2022-09-12T10:37:54.193Z,11.79
2022-09-12T10:40:54.180Z,11.86
2022-09-12T10:43:54.180Z,11.58
2022-09-12T10:46:54.178Z,11.52
2022-09-12T10:49:54.186Z,11.53
2022-09-12T10:52:54.188Z,11.41
2022-09-12T10:55:54.334Z,11.41
2022-09-12T10:58:54.197Z,11.58
2022-09-12T11:01:54.250Z,11.47
2022-09-12T11:04:54.206Z,11.39
2022-09-12T11:07:54.214Z,11.28
2022-09-12T11:10:54.240Z,11.15
2022-09-12T11:13:54.256Z,11.11
2022-09-12T11:16:54.237Z,11.13
2022-09-12T11:19:54.240Z,11.06
2022-09-12T11:22:54.243Z,10.62
2022-09-12T11:25:54.258Z,10.77
2022-09-12T11:28:54.255Z,10.91
2022-09-12T11:31:54.284Z,10.91
2022-09-12T11:34:54.270Z,10.84
2022-09-12T11:37:54.268Z,10.97
2022-09-12T11:40:54.300Z,10.96
2022-09-12T11:43:54.288Z,10.83
2022-09-12T11:46:54.289Z,10.84
2022-09-12T11:49:54.326Z,10.89
2022-09-12T11:52:54.300Z,11
2022-09-12T11:55:54.317Z,10.7
2022-09-12T11:58:54.324Z,10.41
2022-09-12T12:01:54.321Z,10.6
2022-09-12T12:04:54.330Z,10.61
2022-09-12T12:07:54.362Z,10.55
2022-09-12T12:10:54.354Z,10.68
2022-09-12T12:13:54.349Z,10.95
2022-09-12T12:16:54.356Z,11.04
2022-09-12T12:19:54.369Z,10.85
2022-09-12T12:22:54.376Z,10.68
2022-09-12T12:25:54.432Z,10.61
2022-09-12T12:28:54.382Z,10.79
2022-09-12T12:31:54.390Z,10.76
2022-09-12T12:34:54.399Z,10.91
2022-09-12T12:37:54.409Z,10.84
2022-09-12T12:40:54.422Z,10.61
2022-09-12T12:43:54.442Z,10.68
2022-09-12T12:46:54.424Z,10.69
2022-09-12T12:49:54.430Z,10.62
2022-09-12T12:52:54.438Z,10.67
2022-09-12T12:55:54.453Z,10.67
2022-09-12T12:58:54.447Z,10.61
2022-09-12T13:01:55.436Z,10.67
2022-09-12T13:04:54.464Z,10.63
2022-09-12T13:07:54.468Z,10.74
2022-09-12T13:10:54.486Z,10.73
2022-09-12T13:13:54.485Z,10.76
2022-09-12T13:16:54.505Z,10.86
2022-09-12T13:20:10.834Z,11.01
2022-09-12T13:22:54.509Z,10.7
2022-09-12T13:25:54.528Z,10.77
2022-09-12T13:28:54.522Z,10.9
2022-09-12T13:31:54.536Z,10.81
2022-09-12T13:34:54.537Z,10.72
2022-09-12T13:37:54.573Z,10.72
2022-09-12T13:40:54.718Z,10.94
2022-09-12T13:43:54.559Z,11.01
2022-09-12T13:46:54.568Z,11.05
2022-09-12T13:49:54.583Z,11.16
2022-09-12T13:52:54.582Z,11.09
2022-09-12T13:55:54.636Z,10.93
2022-09-12T13:58:54.607Z,10.96
2022-09-12T14:01:54.653Z,11.04
2022-09-12T14:04:54.623Z,11
2022-09-12T14:07:54.631Z,11.09
2022-09-12T14:10:54.658Z,11.04
2022-09-12T14:13:54.665Z,10.78
2022-09-12T14:16:54.651Z,10.65
2022-09-12T14:19:54.659Z,10.7
2022-09-12T14:22:54.660Z,10.79
2022-09-12T14:25:54.685Z,10.77
2022-09-12T14:28:54.692Z,10.65
2022-09-12T14:31:54.723Z,10.76
2022-09-12T14:34:54.694Z,10.67
2022-09-12T14:37:54.707Z,10.72
2022-09-12T14:40:54.728Z,10.91
2022-09-12T14:43:54.719Z,10.73
2022-09-12T14:46:54.725Z,10.55
2022-09-12T14:49:54.761Z,10.64
2022-09-12T14:52:54.742Z,10.48
2022-09-12T14:55:54.753Z,10.61
2022-09-12T14:58:54.761Z,10.67
2022-09-12T15:01:54.782Z,10.52
2022-09-12T15:04:54.775Z,10.46
2022-09-12T15:07:54.798Z,10.42
2022-09-12T15:10:54.799Z,10.28
2022-09-12T15:13:54.785Z,10.16
2022-09-12T15:16:54.866Z,10.09
2022-09-12T15:19:54.807Z,10.04
2022-09-12T15:22:54.801Z,9.83
2022-09-12T15:25:54.845Z,10.04
2022-09-12T15:28:54.844Z,10
2022-09-12T15:31:54.822Z,9.96
2022-09-12T15:34:54.828Z,9.93
2022-09-12T15:37:54.837Z,10.07
2022-09-12T15:40:54.865Z,10.11
2022-09-12T15:43:55.104Z,10.26
2022-09-12T15:46:54.849Z,10.22
2022-09-12T15:49:54.852Z,10.1
2022-09-12T15:52:54.863Z,10.14
2022-09-12T15:55:54.899Z,10.19
2022-09-12T15:58:58.996Z,10.23
2022-09-12T16:01:55.015Z,10.27
2022-09-12T16:04:54.894Z,10.4
2022-09-12T16:07:54.901Z,10.44
2022-09-12T16:10:54.934Z,10.52
2022-09-12T16:13:54.926Z,10.52
2022-09-12T16:16:58.133Z,10.47
2022-09-12T16:19:54.935Z,10.53
2022-09-12T16:22:54.944Z,10.45
2022-09-12T16:25:54.952Z,10.45
2022-09-12T16:28:54.963Z,10.48
2022-09-12T16:31:54.961Z,10.54
2022-09-12T16:34:55.032Z,10.53
2022-09-12T16:37:54.975Z,10.57
2022-09-12T16:40:54.979Z,10.6
2022-09-12T16:43:54.988Z,10.56
2022-09-12T16:46:54.994Z,10.61
2022-09-12T16:49:55.014Z,10.59
2022-09-12T16:52:55.120Z,10.57
2022-09-12T16:55:55.018Z,10.62
2022-09-12T16:58:55.023Z,10.65
2022-09-12T17:01:55.056Z,10.59
2022-09-12T17:04:55.050Z,10.64
2022-09-12T17:07:55.054Z,10.59
2022-09-12T17:10:55.089Z,10.63
2022-09-12T17:14:06.617Z,10.63
2022-09-12T17:16:55.074Z,10.68
2022-09-12T17:19:55.092Z,10.61
2022-09-12T17:22:55.104Z,10.6
2022-09-12T17:25:55.103Z,10.62
2022-09-12T17:28:55.134Z,10.58
2022-09-12T17:31:55.130Z,10.6
2022-09-12T17:34:55.130Z,10.57
2022-09-12T17:37:55.140Z,10.59
2022-09-12T17:40:59.688Z,10.58
2022-09-12T17:43:55.157Z,10.61
2022-09-12T17:46:55.281Z,10.53
2022-09-12T17:50:05.227Z,10.54
2022-09-12T17:52:55.200Z,10.53
2022-09-12T17:55:55.206Z,10.55
2022-09-12T17:58:55.212Z,10.55
2022-09-12T18:01:55.312Z,10.55
2022-09-12T18:04:55.267Z,10.53
2022-09-12T18:07:55.247Z,10.56
2022-09-12T18:10:55.254Z,10.52
2022-09-12T18:13:55.267Z,10.5
2022-09-12T18:16:55.279Z,10.45
2022-09-12T18:19:55.294Z,10.45
2022-09-12T18:22:55.417Z,10.44
2022-09-12T18:25:55.299Z,10.44
2022-09-12T18:28:55.321Z,10.43
2022-09-12T18:31:55.321Z,10.41
2022-09-12T18:34:55.328Z,10.46
2022-09-12T18:37:55.336Z,10.44
2022-09-12T18:40:55.379Z,10.49
2022-09-12T18:43:55.358Z,10.53
2022-09-12T18:46:55.375Z,10.54
2022-09-12T18:49:55.396Z,10.52
2022-09-12T18:52:59.080Z,10.55
2022-09-12T18:55:55.413Z,10.53
2022-09-12T18:58:55.460Z,10.54
2022-09-12T19:01:55.495Z,10.53
2022-09-12T19:04:55.449Z,10.52
2022-09-12T19:07:55.459Z,10.58
2022-09-12T19:10:55.466Z,10.61
2022-09-12T19:13:55.484Z,10.54
2022-09-12T19:16:55.506Z,10.57
2022-09-12T19:19:55.500Z,10.53
2022-09-12T19:22:55.514Z,10.56
2022-09-12T19:25:55.526Z,10.52
2022-09-12T19:28:55.532Z,10.55
2022-09-12T19:31:55.535Z,10.5
2022-09-12T19:34:55.658Z,10.46
2022-09-12T19:37:55.566Z,10.49
2022-09-12T19:40:55.576Z,10.46
2022-09-12T19:43:55.589Z,10.44
2022-09-12T19:46:55.589Z,10.48
2022-09-12T19:49:55.606Z,10.47
2022-09-12T19:52:55.728Z,10.5
2022-09-12T19:55:55.631Z,10.43
2022-09-12T19:58:56.787Z,10.47
2022-09-12T20:01:55.741Z,10.43
2022-09-12T20:04:55.660Z,10.47
2022-09-12T20:07:55.668Z,10.43
2022-09-12T20:10:57.107Z,10.41
2022-09-12T20:13:55.694Z,10.4
2022-09-12T20:16:55.708Z,10.37
2022-09-12T20:19:55.722Z,10.35
2022-09-12T20:22:55.724Z,10.29
2022-09-12T20:25:55.733Z,10.33
2022-09-12T20:28:55.853Z,10.31
2022-09-12T20:31:55.755Z,10.34
2022-09-12T20:34:55.770Z,10.32
2022-09-12T20:37:55.795Z,10.27
2022-09-12T20:40:55.784Z,10.28
2022-09-12T20:43:55.798Z,10.23
2022-09-12T20:46:55.966Z,10.14
2022-09-12T20:49:55.824Z,10.17
2022-09-12T20:52:55.838Z,10.19
2022-09-12T20:55:55.850Z,10.2
2022-09-12T20:58:55.862Z,10.12
2022-09-12T21:01:55.945Z,10.1
2022-09-12T21:04:55.910Z,10.1
2022-09-12T21:07:55.900Z,10.08
2022-09-12T21:10:55.918Z,10.06
2022-09-12T21:13:55.920Z,10.04
2022-09-12T21:16:55.928Z,10.03
2022-09-12T21:19:55.941Z,9.96
2022-09-12T21:22:55.974Z,10.01
2022-09-12T21:25:55.961Z,10.02
2022-09-12T21:28:55.973Z,9.94
2022-09-12T21:31:55.980Z,9.96
2022-09-12T21:34:55.997Z,9.91
2022-09-12T21:37:55.999Z,9.91
2022-09-12T21:40:56.037Z,9.87
2022-09-12T21:43:56.027Z,9.91
2022-09-12T21:46:56.038Z,9.86
2022-09-12T21:49:56.049Z,9.78
2022-09-12T21:52:56.059Z,9.79
2022-09-12T21:55:56.071Z,9.82
2022-09-12T21:58:56.100Z,9.78
2022-09-12T22:01:56.150Z,9.82
2022-09-12T22:04:56.100Z,9.85
2022-09-12T22:07:56.103Z,9.81
2022-09-12T22:10:56.117Z,9.78
2022-09-12T22:13:56.127Z,9.87
2022-09-12T22:16:56.217Z,9.8
2022-09-12T22:19:56.143Z,9.86
2022-09-12T22:22:56.150Z,9.86
2022-09-12T22:25:56.167Z,9.85
2022-09-12T22:28:56.172Z,9.84
2022-09-12T22:31:56.181Z,9.78
2022-09-12T22:34:56.220Z,9.78
2022-09-12T22:37:56.201Z,9.78
2022-09-12T22:40:56.222Z,9.72
2022-09-12T22:43:56.225Z,9.7
2022-09-12T22:46:56.276Z,9.63
2022-09-12T22:49:56.237Z,9.68
2022-09-12T22:52:56.364Z,9.68
2022-09-12T22:55:56.261Z,9.69
2022-09-12T22:58:56.266Z,9.7
2022-09-12T23:01:56.267Z,9.71
2022-09-12T23:04:56.275Z,9.71
2022-09-12T23:07:56.287Z,9.71
2022-09-12T23:10:56.311Z,9.7
2022-09-12T23:13:56.296Z,9.75
2022-09-12T23:16:56.299Z,9.73
2022-09-12T23:19:56.302Z,9.75
2022-09-12T23:22:56.314Z,9.69
2022-09-12T23:25:56.321Z,9.7
2022-09-12T23:28:56.346Z,9.7
2022-09-12T23:31:56.328Z,9.66
2022-09-12T23:34:56.338Z,9.66
2022-09-12T23:37:56.347Z,9.69
2022-09-12T23:40:56.357Z,9.76
2022-09-12T23:43:56.356Z,9.73
2022-09-12T23:46:56.488Z,9.7
2022-09-12T23:49:56.374Z,9.7
2022-09-12T23:52:56.371Z,9.7
2022-09-12T23:55:56.380Z,9.66
2022-09-12T23:58:56.383Z,9.67
